Time;durP1;ratioP1;P1;durP2;ratioP2;P2;SDS_P1;SDS_P2;PMS_P1;PMS_P2;Temp;Humidity;BMP_temperature;BMP_pressure;BME280_temperature;BME280_humidity;BME280_pressure;Samples;Min_cycle;Max_cycle;Signal;HPM_P1;HPM_P2
2022/05/11 00:01:49;;;;;;;6.03;3.55;;;;;;;;;;5017558;28;20045;-93
2022/05/11 00:04:17;;;;;;;7.80;3.65;;;;;;;;;;5012547;28;20132;-93
2022/05/11 00:06:45;;;;;;;8.10;3.72;;;;;;;;;;5008105;28;20046;-94
2022/05/11 00:09:15;;;;;;;7.03;3.40;;;;;;;;;;4999741;28;20463;-94
2022/05/11 00:11:42;;;;;;;6.40;3.50;;;;;;;;;;5028181;28;20177;-94
2022/05/11 00:14:11;;;;;;;6.05;3.53;;;;;;;;;;5003756;28;20120;-94
2022/05/11 00:16:39;;;;;;;5.07;2.90;;;;;;;;;;5011163;28;20112;-93
2022/05/11 00:19:07;;;;;;;4.28;2.88;;;;;;;;;;5004131;28;20046;-93
2022/05/11 00:21:35;;;;;;;5.03;2.80;;;;;;;;;;5007709;28;20111;-93
2022/05/11 00:24:02;;;;;;;7.20;2.83;;;;;;;;;;5011910;28;20043;-94
2022/05/11 00:26:30;;;;;;;6.18;2.60;;;;;;;;;;5015216;28;20076;-93
2022/05/11 00:28:57;;;;;;;6.75;3.15;;;;;;;;;;5015065;28;20042;-94
2022/05/11 00:31:24;;;;;;;9.55;3.35;;;;;;;;;;5016178;28;20053;-95
2022/05/11 00:33:52;;;;;;;3.97;2.47;;;;;;;;;;5016219;28;20054;-94
2022/05/11 00:36:30;;;;;;;5.80;3.00;;;;;;;;;;5015632;28;20057;-94
2022/05/11 00:39:02;;;;;;;6.28;3.17;;;;;;;;;;5016686;28;20046;-94
2022/05/11 00:41:30;;;;;;;8.48;3.40;;;;;;;;;;5017166;28;20493;-95
2022/05/11 00:43:59;;;;;;;9.13;3.80;;;;;;;;;;5015569;28;20054;-94
2022/05/11 00:46:45;;;;;;;9.63;3.85;;;;;;;;;;5015513;28;20054;-93
2022/05/11 00:49:38;;;;;;;9.85;3.88;;;;;;;;;;5015574;28;20491;-94
2022/05/11 00:52:11;;;;;;;9.88;3.63;;;;;;;;;;5014052;28;20046;-95
2022/05/11 00:54:43;;;;;;;8.20;3.28;;;;;;;;;;5017155;28;20096;-94
2022/05/11 00:57:14;;;;;;;7.80;3.58;;;;;;;;;;5005779;28;20049;-93
2022/05/11 00:59:43;;;;;;;9.63;3.83;;;;;;;;;;5013984;28;20068;-93
2022/05/11 01:02:23;;;;;;;22.83;4.07;;;;;;;;;;4999278;28;20326;-92
2022/05/11 01:08:29;;;;;;;9.15;3.45;;;;;;;;;;4985397;28;20109;-93
2022/05/11 01:10:56;;;;;;;10.82;3.42;;;;;;;;;;4999619;28;20041;-94
2022/05/11 01:13:24;;;;;;;7.75;3.00;;;;;;;;;;5015381;28;20054;-94
2022/05/11 01:15:52;;;;;;;7.78;2.85;;;;;;;;;;5015277;28;20141;-94
2022/05/11 01:18:23;;;;;;;7.80;3.85;;;;;;;;;;5014513;28;20042;-94
2022/05/11 01:20:51;;;;;;;7.90;3.83;;;;;;;;;;5014876;28;20053;-94
2022/05/11 01:23:37;;;;;;;7.43;3.50;;;;;;;;;;5012645;28;20064;-93
2022/05/11 01:26:05;;;;;;;8.60;3.58;;;;;;;;;;5011711;28;20118;-94
2022/05/11 01:28:32;;;;;;;4.97;3.80;;;;;;;;;;5013529;28;20096;-93
2022/05/11 01:31:05;;;;;;;10.77;3.70;;;;;;;;;;5014258;28;20046;-93
2022/05/11 01:33:33;;;;;;;8.38;4.18;;;;;;;;;;5023789;28;20119;-93
2022/05/11 01:36:15;;;;;;;12.65;4.20;;;;;;;;;;5007583;28;20054;-96
2022/05/11 01:38:44;;;;;;;9.75;4.25;;;;;;;;;;5011222;28;20108;-94
2022/05/11 01:41:20;;;;;;;9.90;4.03;;;;;;;;;;5015600;28;20136;-94
2022/05/11 01:43:51;;;;;;;6.15;3.92;;;;;;;;;;5026930;28;20111;-95
2022/05/11 01:46:18;;;;;;;10.82;3.88;;;;;;;;;;5014144;28;20072;-94
2022/05/11 01:48:46;;;;;;;6.82;3.65;;;;;;;;;;5014396;28;20136;-95
2022/05/11 01:51:17;;;;;;;12.70;3.72;;;;;;;;;;5025911;28;20046;-94
2022/05/11 01:53:45;;;;;;;6.05;3.30;;;;;;;;;;5009649;28;20449;-94
2022/05/11 01:56:17;;;;;;;9.75;4.35;;;;;;;;;;5017854;28;20064;-94
2022/05/11 01:58:44;;;;;;;9.13;3.63;;;;;;;;;;5017496;28;20490;-94
2022/05/11 02:01:12;;;;;;;7.32;3.72;;;;;;;;;;5035270;28;20049;-94
2022/05/11 02:03:39;;;;;;;5.43;3.58;;;;;;;;;;5011208;28;20129;-93
2022/05/11 02:08:52;;;;;;;10.82;4.40;;;;;;;;;;5018484;28;20161;-93
2022/05/11 02:11:20;;;;;;;8.77;4.32;;;;;;;;;;5013932;28;20069;-94
2022/05/11 02:13:47;;;;;;;8.60;3.60;;;;;;;;;;5016429;28;20065;-93
2022/05/11 02:16:15;;;;;;;10.15;4.10;;;;;;;;;;5002900;28;20141;-93
2022/05/11 02:18:43;;;;;;;9.43;4.55;;;;;;;;;;5013517;28;20077;-94
2022/05/11 02:21:11;;;;;;;9.15;3.90;;;;;;;;;;5010852;28;20140;-93
2022/05/11 02:23:38;;;;;;;9.32;3.70;;;;;;;;;;5017175;28;20049;-93
2022/05/11 02:26:08;;;;;;;8.45;3.78;;;;;;;;;;5025026;28;20034;-93
2022/05/11 02:28:36;;;;;;;6.97;4.13;;;;;;;;;;5024650;28;20033;-93
2022/05/11 02:31:03;;;;;;;8.85;4.72;;;;;;;;;;5034048;28;20107;-94
2022/05/11 02:33:31;;;;;;;8.75;4.50;;;;;;;;;;5026840;28;20028;-93
2022/05/11 02:35:58;;;;;;;11.48;3.97;;;;;;;;;;5038679;28;20104;-93
2022/05/11 02:38:28;;;;;;;6.55;4.57;;;;;;;;;;5027407;28;20034;-93
2022/05/11 02:40:56;;;;;;;11.63;4.60;;;;;;;;;;5026466;28;20096;-92
2022/05/11 02:43:23;;;;;;;11.55;5.07;;;;;;;;;;5029787;28;20034;-92
2022/05/11 02:45:50;;;;;;;10.27;4.32;;;;;;;;;;5033417;28;20053;-93
2022/05/11 02:48:21;;;;;;;7.70;4.60;;;;;;;;;;5034841;28;20037;-93
2022/05/11 02:50:50;;;;;;;13.73;4.78;;;;;;;;;;5033294;28;20330;-93
2022/05/11 02:53:18;;;;;;;8.50;4.50;;;;;;;;;;5032425;28;20026;-93
2022/05/11 02:55:47;;;;;;;12.52;5.00;;;;;;;;;;5035169;28;20053;-93
2022/05/11 02:58:16;;;;;;;10.18;5.18;;;;;;;;;;5046239;28;20116;-93
2022/05/11 03:00:44;;;;;;;11.48;5.38;;;;;;;;;;5016421;28;20125;-93
2022/05/11 03:03:13;;;;;;;9.80;5.38;;;;;;;;;;5001580;28;20104;-93
2022/05/11 03:05:40;;;;;;;6.80;4.60;;;;;;;;;;5012082;28;20053;-93
2022/05/11 03:08:10;;;;;;;12.20;4.75;;;;;;;;;;5013345;28;20119;-94
2022/05/11 03:10:39;;;;;;;8.13;4.70;;;;;;;;;;5001120;28;20045;-93
2022/05/11 03:13:07;;;;;;;7.90;4.43;;;;;;;;;;5018308;28;20096;-93
2022/05/11 03:15:34;;;;;;;15.00;4.70;;;;;;;;;;5000326;28;20061;-93
2022/05/11 03:18:02;;;;;;;14.27;5.35;;;;;;;;;;4999649;28;20066;-93
2022/05/11 03:20:32;;;;;;;10.15;4.93;;;;;;;;;;5025457;28;20058;-91
2022/05/11 03:23:00;;;;;;;10.15;4.32;;;;;;;;;;5005426;28;20049;-94
2022/05/11 03:25:27;;;;;;;10.07;5.25;;;;;;;;;;5003565;28;20041;-94
2022/05/11 03:27:55;;;;;;;7.32;5.05;;;;;;;;;;5002759;28;20049;-94
2022/05/11 03:30:22;;;;;;;15.95;4.68;;;;;;;;;;5014648;28;20057;-93
2022/05/11 03:35:36;;;;;;;12.77;5.60;;;;;;;;;;5034434;28;20570;-94
2022/05/11 03:38:05;;;;;;;10.77;4.63;;;;;;;;;;5016702;28;20057;-94
2022/05/11 03:40:34;;;;;;;11.27;5.25;;;;;;;;;;5002274;28;20521;-95
2022/05/11 03:43:05;;;;;;;8.68;4.70;;;;;;;;;;5017687;28;20052;-94
2022/05/11 03:45:32;;;;;;;13.00;4.80;;;;;;;;;;5015233;28;20050;-94
2022/05/11 03:48:00;;;;;;;9.75;5.88;;;;;;;;;;5016132;28;20045;-94
2022/05/11 03:50:27;;;;;;;12.38;5.57;;;;;;;;;;5023180;28;20042;-93
2022/05/11 03:52:55;;;;;;;12.02;5.53;;;;;;;;;;5015569;28;20056;-94
2022/05/11 03:55:24;;;;;;;13.38;5.18;;;;;;;;;;5016705;28;20398;-94
2022/05/11 03:57:51;;;;;;;17.50;6.00;;;;;;;;;;5015765;28;20099;-94
2022/05/11 04:00:21;;;;;;;10.43;5.93;;;;;;;;;;5016809;28;20050;-93
2022/05/11 04:02:52;;;;;;;10.48;5.47;;;;;;;;;;5016624;28;20054;-94
2022/05/11 04:05:21;;;;;;;10.32;5.25;;;;;;;;;;5016445;28;20073;-94
2022/05/11 04:07:48;;;;;;;11.32;5.38;;;;;;;;;;5016557;28;20057;-95
2022/05/11 04:10:20;;;;;;;9.02;5.05;;;;;;;;;;5016758;28;20050;-94
2022/05/11 04:12:52;;;;;;;15.27;5.88;;;;;;;;;;5020504;28;20114;-95
2022/05/11 04:15:30;;;;;;;12.80;5.88;;;;;;;;;;5021249;28;20498;-94
2022/05/11 04:17:59;;;;;;;9.70;4.95;;;;;;;;;;5004079;28;20551;-95
2022/05/11 04:20:30;;;;;;;12.93;5.60;;;;;;;;;;5020126;28;20072;-94
2022/05/11 04:22:59;;;;;;;9.27;5.35;;;;;;;;;;5006862;28;20061;-94
2022/05/11 04:25:27;;;;;;;10.60;5.55;;;;;;;;;;5004828;28;20045;-93
2022/05/11 04:27:54;;;;;;;14.15;6.10;;;;;;;;;;5015793;28;20053;-94
2022/05/11 04:30:26;;;;;;;9.30;5.20;;;;;;;;;;5015663;28;20050;-94
2022/05/11 04:32:56;;;;;;;13.63;5.40;;;;;;;;;;5025287;28;20046;-93
2022/05/11 04:35:23;;;;;;;12.68;5.40;;;;;;;;;;5034471;28;20061;-95
2022/05/11 04:37:50;;;;;;;6.72;4.68;;;;;;;;;;5012390;28;20467;-94
2022/05/11 04:40:18;;;;;;;12.32;5.28;;;;;;;;;;5015356;28;20399;-94
2022/05/11 04:42:45;;;;;;;8.88;5.20;;;;;;;;;;5015551;28;20471;-95
2022/05/11 04:45:14;;;;;;;12.55;5.97;;;;;;;;;;5012850;28;20422;-95
2022/05/11 04:47:42;;;;;;;10.00;4.90;;;;;;;;;;5010918;28;20398;-94
2022/05/11 04:50:10;;;;;;;12.98;5.57;;;;;;;;;;5027682;28;20042;-93
2022/05/11 04:52:45;;;;;;;18.40;5.82;;;;;;;;;;5020413;28;20050;-94
2022/05/11 04:55:12;;;;;;;11.25;5.65;;;;;;;;;;5024751;28;20038;-94
2022/05/11 04:57:40;;;;;;;11.55;5.70;;;;;;;;;;5005676;28;20054;-95
2022/05/11 05:00:09;;;;;;;12.45;6.13;;;;;;;;;;5014026;28;20053;-96
2022/05/11 05:02:39;;;;;;;18.42;5.88;;;;;;;;;;5023260;28;20526;-94
2022/05/11 05:05:09;;;;;;;22.83;6.55;;;;;;;;;;5019478;28;20050;-95
2022/05/11 05:07:39;;;;;;;20.25;6.93;;;;;;;;;;5008105;28;20053;-95
2022/05/11 05:10:12;;;;;;;14.07;5.05;;;;;;;;;;5021232;28;20058;-94
2022/05/11 05:12:39;;;;;;;13.75;6.18;;;;;;;;;;5033371;28;20117;-94
2022/05/11 05:15:07;;;;;;;12.68;6.03;;;;;;;;;;5020825;28;20457;-94
2022/05/11 05:17:35;;;;;;;11.88;6.10;;;;;;;;;;5020406;28;20140;-94
2022/05/11 05:20:05;;;;;;;12.50;6.47;;;;;;;;;;5017966;28;20049;-95
2022/05/11 05:22:32;;;;;;;14.50;5.90;;;;;;;;;;5008922;28;20057;-92
2022/05/11 05:24:59;;;;;;;13.65;6.55;;;;;;;;;;4992364;28;20105;-92
2022/05/11 05:27:27;;;;;;;18.02;7.13;;;;;;;;;;5006503;28;20053;-92
2022/05/11 05:32:43;;;;;;;29.02;7.38;;;;;;;;;;5028769;28;20104;-94
2022/05/11 05:35:12;;;;;;;24.17;8.25;;;;;;;;;;5008457;28;20053;-95
2022/05/11 05:37:39;;;;;;;18.40;6.55;;;;;;;;;;5005515;28;20103;-92
2022/05/11 05:40:07;;;;;;;10.10;6.32;;;;;;;;;;5005444;28;20084;-93
2022/05/11 05:42:36;;;;;;;8.93;5.90;;;;;;;;;;5023223;28;20518;-95
2022/05/11 05:45:10;;;;;;;11.63;6.25;;;;;;;;;;5010451;28;20045;-93
2022/05/11 05:47:38;;;;;;;9.43;6.15;;;;;;;;;;5000842;28;20442;-94
2022/05/11 05:50:11;;;;;;;10.80;6.15;;;;;;;;;;5009566;28;20046;-94
2022/05/11 05:52:39;;;;;;;12.70;7.05;;;;;;;;;;5015850;28;20132;-94
2022/05/11 05:55:10;;;;;;;18.42;6.97;;;;;;;;;;4998398;28;20061;-94
2022/05/11 05:57:47;;;;;;;10.30;6.85;;;;;;;;;;4999280;28;20478;-94
2022/05/11 06:00:23;;;;;;;15.77;7.68;;;;;;;;;;4997890;28;20156;-95
2022/05/11 06:02:56;;;;;;;14.32;7.45;;;;;;;;;;4997373;28;20479;-94
2022/05/11 06:05:28;;;;;;;19.40;8.45;;;;;;;;;;5013715;28;20050;-93
2022/05/11 06:07:56;;;;;;;12.88;7.97;;;;;;;;;;4978042;28;20050;-94
2022/05/11 06:10:25;;;;;;;16.73;7.72;;;;;;;;;;4994421;28;20105;-95
2022/05/11 06:12:52;;;;;;;12.80;8.55;;;;;;;;;;4994968;28;20058;-95
2022/05/11 06:15:20;;;;;;;15.18;8.00;;;;;;;;;;4997383;28;20042;-95
2022/05/11 06:17:47;;;;;;;17.30;7.90;;;;;;;;;;4997318;28;20049;-94
2022/05/11 06:20:15;;;;;;;15.52;8.88;;;;;;;;;;5014136;28;20057;-94
2022/05/11 06:22:42;;;;;;;14.75;8.07;;;;;;;;;;5014019;28;20057;-94
2022/05/11 06:25:10;;;;;;;15.52;8.70;;;;;;;;;;5013403;28;20513;-94
2022/05/11 06:27:38;;;;;;;14.23;8.43;;;;;;;;;;5013969;28;20050;-95
2022/05/11 06:30:06;;;;;;;16.35;8.77;;;;;;;;;;5014940;28;20046;-94
2022/05/11 06:32:37;;;;;;;13.00;8.40;;;;;;;;;;5014078;28;20073;-94
2022/05/11 06:35:05;;;;;;;21.10;9.25;;;;;;;;;;5014761;28;20140;-94
2022/05/11 06:37:32;;;;;;;21.83;8.90;;;;;;;;;;5015191;28;20080;-95
2022/05/11 06:40:01;;;;;;;17.48;8.68;;;;;;;;;;5014702;28;20133;-94
2022/05/11 06:42:31;;;;;;;14.18;9.02;;;;;;;;;;5014159;28;20144;-94
2022/05/11 06:44:59;;;;;;;15.63;8.77;;;;;;;;;;5015549;28;20049;-93
2022/05/11 06:47:26;;;;;;;17.30;8.77;;;;;;;;;;5014413;28;20054;-93
2022/05/11 06:49:54;;;;;;;17.40;9.65;;;;;;;;;;5014666;28;20483;-94
2022/05/11 06:52:23;;;;;;;14.23;9.25;;;;;;;;;;5014117;28;20054;-94
2022/05/11 07:00:28;;;;;;;17.13;9.70;;;;;;;;;;5015252;28;20058;-94
2022/05/11 07:02:55;;;;;;;14.55;9.10;;;;;;;;;;4999059;28;20058;-95
2022/05/11 07:05:32;;;;;;;17.92;9.02;;;;;;;;;;5001201;28;20045;-95
2022/05/11 07:08:00;;;;;;;17.40;9.20;;;;;;;;;;4999587;28;20057;-94
2022/05/11 07:10:27;;;;;;;20.95;9.30;;;;;;;;;;4999008;28;20042;-93
2022/05/11 07:12:56;;;;;;;16.13;8.35;;;;;;;;;;5014658;28;20046;-94
2022/05/11 07:15:25;;;;;;;14.43;9.43;;;;;;;;;;5014276;28;20069;-94
2022/05/11 07:17:54;;;;;;;14.00;7.78;;;;;;;;;;5018345;28;20058;-92
2022/05/11 07:20:29;;;;;;;18.88;8.82;;;;;;;;;;5018613;28;20058;-95
2022/05/11 07:22:57;;;;;;;15.43;8.80;;;;;;;;;;5018704;28;20451;-95
2022/05/11 07:25:25;;;;;;;14.10;9.35;;;;;;;;;;5019076;28;20050;-94
2022/05/11 07:27:53;;;;;;;19.13;8.50;;;;;;;;;;5018185;28;20050;-93
2022/05/11 07:30:22;;;;;;;13.52;9.30;;;;;;;;;;5008592;28;20056;-94
2022/05/11 07:32:57;;;;;;;16.08;10.30;;;;;;;;;;5016768;28;20077;-93
2022/05/11 07:35:25;;;;;;;20.73;10.52;;;;;;;;;;5017132;28;20057;-93
2022/05/11 07:37:52;;;;;;;14.60;10.35;;;;;;;;;;5019452;28;20064;-94
2022/05/11 07:40:21;;;;;;;22.05;11.90;;;;;;;;;;5018500;28;20053;-93
2022/05/11 07:42:48;;;;;;;20.55;11.38;;;;;;;;;;5016770;28;20050;-92
2022/05/11 07:45:17;;;;;;;22.52;11.55;;;;;;;;;;5016833;28;20129;-93
2022/05/11 07:47:54;;;;;;;26.23;12.73;;;;;;;;;;5016800;28;20434;-93
2022/05/11 07:50:25;;;;;;;19.05;12.68;;;;;;;;;;5017034;28;20049;-93
2022/05/11 07:52:54;;;;;;;17.60;11.77;;;;;;;;;;5017236;28;20042;-93
2022/05/11 07:55:25;;;;;;;25.05;13.02;;;;;;;;;;5017353;28;20595;-93
2022/05/11 08:00:39;;;;;;;20.63;12.40;;;;;;;;;;5017820;28;20076;-94
2022/05/11 08:03:09;;;;;;;23.38;13.50;;;;;;;;;;5017511;28;20107;-95
2022/05/11 08:05:40;;;;;;;24.90;13.43;;;;;;;;;;5017893;28;20473;-94
2022/05/11 08:08:10;;;;;;;21.20;14.10;;;;;;;;;;5017139;28;20133;-93
2022/05/11 08:10:41;;;;;;;21.77;14.30;;;;;;;;;;5016652;28;20070;-94
2022/05/11 08:13:22;;;;;;;18.75;14.10;;;;;;;;;;5016328;28;20057;-94
2022/05/11 08:16:02;;;;;;;21.05;14.60;;;;;;;;;;5016271;28;20998;-93
2022/05/11 08:18:33;;;;;;;24.00;14.93;;;;;;;;;;5016664;28;20149;-94
2022/05/11 08:21:04;;;;;;;23.58;14.85;;;;;;;;;;4997041;28;20050;-93
2022/05/11 08:23:34;;;;;;;21.73;15.13;;;;;;;;;;4995636;28;20141;-94
2022/05/11 08:26:04;;;;;;;25.10;14.85;;;;;;;;;;5001527;28;20513;-94
2022/05/11 08:28:36;;;;;;;27.05;15.13;;;;;;;;;;5001493;28;20050;-93
2022/05/11 08:33:51;;;;;;;29.70;15.32;;;;;;;;;;5018550;28;20050;-93
2022/05/11 08:36:36;;;;;;;30.40;15.05;;;;;;;;;;5017226;28;20132;-93
2022/05/11 08:39:06;;;;;;;30.65;15.55;;;;;;;;;;5016690;28;20077;-93
2022/05/11 08:41:52;;;;;;;23.75;15.23;;;;;;;;;;5016152;28;20069;-93
2022/05/11 08:44:20;;;;;;;31.08;14.93;;;;;;;;;;5016766;28;20137;-94
2022/05/11 08:47:11;;;;;;;21.83;14.70;;;;;;;;;;5017848;28;20046;-94
2022/05/11 08:50:06;;;;;;;25.77;13.68;;;;;;;;;;5017206;28;20049;-94
2022/05/11 08:52:54;;;;;;;24.52;14.18;;;;;;;;;;5015599;28;20057;-94
2022/05/11 08:55:35;;;;;;;23.88;14.05;;;;;;;;;;5018314;28;20511;-94
2022/05/11 08:58:15;;;;;;;26.40;13.02;;;;;;;;;;5015771;28;20050;-94
2022/05/11 09:00:47;;;;;;;24.15;13.18;;;;;;;;;;4998229;28;20050;-93
2022/05/11 09:03:37;;;;;;;28.52;13.98;;;;;;;;;;4997071;28;20057;-94
2022/05/11 09:06:07;;;;;;;17.15;12.80;;;;;;;;;;4994116;28;20133;-93
2022/05/11 09:08:36;;;;;;;20.90;13.82;;;;;;;;;;4998684;28;20129;-93
2022/05/11 09:11:08;;;;;;;25.02;12.82;;;;;;;;;;4998531;28;20046;-94
2022/05/11 09:13:35;;;;;;;19.67;12.63;;;;;;;;;;4998999;28;20051;-95
2022/05/11 09:16:09;;;;;;;18.90;12.48;;;;;;;;;;4999140;28;20064;-94
2022/05/11 09:18:39;;;;;;;27.90;12.90;;;;;;;;;;5013553;28;20046;-93
2022/05/11 09:21:13;;;;;;;19.55;11.77;;;;;;;;;;5001480;28;20072;-95
2022/05/11 09:23:42;;;;;;;21.48;12.13;;;;;;;;;;5001579;28;20069;-94
2022/05/11 09:26:15;;;;;;;16.65;11.40;;;;;;;;;;5001552;28;20041;-94
2022/05/11 09:28:46;;;;;;;17.15;10.90;;;;;;;;;;5001762;28;20566;-94
2022/05/11 09:31:28;;;;;;;23.30;11.82;;;;;;;;;;5002862;28;20106;-94
2022/05/11 09:34:00;;;;;;;12.75;10.23;;;;;;;;;;5018519;28;20065;-93
2022/05/11 09:37:03;;;;;;;17.98;11.00;;;;;;;;;;5018970;28;20100;-94
2022/05/11 09:39:34;;;;;;;17.15;10.40;;;;;;;;;;5017932;28;20556;-94
2022/05/11 09:42:17;;;;;;;30.08;10.60;;;;;;;;;;5017766;28;20498;-94
2022/05/11 09:44:49;;;;;;;19.85;9.43;;;;;;;;;;5019947;28;20451;-94
2022/05/11 09:47:35;;;;;;;18.25;10.45;;;;;;;;;;5026561;28;20046;-92
2022/05/11 09:50:21;;;;;;;20.38;9.70;;;;;;;;;;4999034;28;20135;-94
2022/05/11 09:53:26;;;;;;;15.98;10.27;;;;;;;;;;4998736;28;20040;-95
2022/05/11 09:56:21;;;;;;;19.70;8.52;;;;;;;;;;5012041;28;20046;-95
2022/05/11 09:58:48;;;;;;;22.38;9.57;;;;;;;;;;5014552;28;20101;-94
2022/05/11 10:01:17;;;;;;;40.03;10.98;;;;;;;;;;5034140;28;20034;-93
2022/05/11 10:03:51;;;;;;;13.23;8.60;;;;;;;;;;5038609;28;20093;-94
2022/05/11 10:06:53;;;;;;;14.70;8.45;;;;;;;;;;5038661;28;20036;-94
2022/05/11 10:09:30;;;;;;;14.65;7.85;;;;;;;;;;5038631;28;20101;-94
2022/05/11 10:12:06;;;;;;;12.45;8.23;;;;;;;;;;5038733;28;20034;-95
2022/05/11 10:23:30;;;;;;;14.10;7.38;;;;;;;;;;5027655;28;20064;-79
2022/05/11 10:26:08;;;;;;;9.80;6.20;;;;;;;;;;5027758;28;20132;-78
2022/05/11 10:28:41;;;;;;;12.48;6.30;;;;;;;;;;5027156;28;20569;-78
2022/05/11 10:31:16;;;;;;;9.32;6.38;;;;;;;;;;5026395;28;20057;-78
2022/05/11 10:34:02;;;;;;;19.48;6.93;;;;;;;;;;5011439;28;20053;-78
2022/05/11 10:36:29;;;;;;;10.90;6.47;;;;;;;;;;5029193;28;20124;-78
2022/05/11 10:39:06;;;;;;;15.25;7.43;;;;;;;;;;5028760;28;20166;-78
2022/05/11 10:41:44;;;;;;;11.07;7.50;;;;;;;;;;5009991;28;20133;-78
2022/05/11 10:44:30;;;;;;;14.45;7.40;;;;;;;;;;5010110;28;20099;-78
2022/05/11 10:46:57;;;;;;;13.10;7.40;;;;;;;;;;5009815;28;20076;-77
2022/05/11 10:49:24;;;;;;;15.00;8.43;;;;;;;;;;5027413;28;20049;-77
2022/05/11 10:52:10;;;;;;;9.23;7.05;;;;;;;;;;5010750;28;20091;-78
2022/05/11 10:54:49;;;;;;;12.35;8.32;;;;;;;;;;5020112;28;20124;-78
2022/05/11 10:57:46;;;;;;;11.50;7.82;;;;;;;;;;5011466;28;20132;-78
2022/05/11 11:00:21;;;;;;;15.65;8.57;;;;;;;;;;5012781;28;20449;-78
2022/05/11 11:02:56;;;;;;;14.45;8.70;;;;;;;;;;5010200;28;20060;-78
2022/05/11 11:05:29;;;;;;;12.13;8.52;;;;;;;;;;5029769;28;20565;-78
2022/05/11 11:08:02;;;;;;;14.50;8.23;;;;;;;;;;5013258;28;20581;-78
2022/05/11 11:10:36;;;;;;;14.43;7.68;;;;;;;;;;5010400;28;20134;-78
2022/05/11 11:13:13;;;;;;;13.83;7.73;;;;;;;;;;5028921;28;20088;-78
2022/05/11 11:15:44;;;;;;;12.38;7.78;;;;;;;;;;5029296;28;20137;-78
2022/05/11 11:18:13;;;;;;;16.48;7.68;;;;;;;;;;5012318;28;20138;-78
2022/05/11 11:20:42;;;;;;;10.30;6.75;;;;;;;;;;5012653;28;20793;-78
2022/05/11 11:23:13;;;;;;;11.30;6.53;;;;;;;;;;5012763;28;20085;-78
2022/05/11 11:25:51;;;;;;;18.27;7.00;;;;;;;;;;5012671;28;20057;-78
2022/05/11 11:28:23;;;;;;;12.15;6.40;;;;;;;;;;5012438;28;20200;-78
2022/05/11 11:31:00;;;;;;;10.63;6.47;;;;;;;;;;5011943;28;20085;-78
2022/05/11 11:33:28;;;;;;;8.23;6.80;;;;;;;;;;5011283;28;20084;-78
2022/05/11 11:35:57;;;;;;;10.90;6.47;;;;;;;;;;5009936;28;20065;-77
2022/05/11 11:38:28;;;;;;;11.07;6.88;;;;;;;;;;5028919;28;20085;-78
2022/05/11 11:41:14;;;;;;;9.88;6.53;;;;;;;;;;5010685;28;20107;-78
2022/05/11 11:43:57;;;;;;;9.25;6.82;;;;;;;;;;5010830;28;20496;-78
2022/05/11 11:46:44;;;;;;;15.40;6.20;;;;;;;;;;5011520;28;20084;-78
2022/05/11 11:49:30;;;;;;;9.75;6.07;;;;;;;;;;5028288;28;20049;-79
2022/05/11 11:52:02;;;;;;;8.55;6.20;;;;;;;;;;5028582;28;20140;-79
2022/05/11 11:54:38;;;;;;;7.10;6.13;;;;;;;;;;5011242;28;20134;-78
2022/05/11 11:57:05;;;;;;;11.25;6.95;;;;;;;;;;5028936;28;20057;-78
2022/05/11 11:59:34;;;;;;;8.07;6.20;;;;;;;;;;5010185;28;20122;-79
2022/05/11 12:02:22;;;;;;;11.73;5.93;;;;;;;;;;5027441;28;20129;-78
2022/05/11 12:05:05;;;;;;;9.70;5.57;;;;;;;;;;5011420;28;20149;-78
2022/05/11 12:16:58;;;;;;;14.93;6.35;;;;;;;;;;5020819;28;20081;-79
2022/05/11 12:19:37;;;;;;;16.17;5.60;;;;;;;;;;5010821;28;20068;-79
2022/05/11 12:22:22;;;;;;;14.45;5.43;;;;;;;;;;5028061;28;20654;-79
2022/05/11 12:24:49;;;;;;;;;;;;;;;;;;5028153;28;20064;-80
2022/05/11 12:27:24;;;;;;;15.73;5.05;;;;;;;;;;5028629;28;20381;-79
2022/05/11 12:29:59;;;;;;;9.38;4.53;;;;;;;;;;5009929;28;20633;-79
2022/05/11 12:32:26;;;;;;;;;;;;;;;;;;5010357;28;20501;-78
2022/05/11 12:34:54;;;;;;;8.60;5.22;;;;;;;;;;5029438;28;19975;-79
2022/05/11 12:37:26;;;;;;;14.68;5.50;;;;;;;;;;5028037;28;20674;-79
2022/05/11 12:40:01;;;;;;;10.68;5.32;;;;;;;;;;5027996;28;20136;-79
2022/05/11 12:42:30;;;;;;;6.57;5.30;;;;;;;;;;5008683;28;20053;-79
2022/05/11 12:44:57;;;;;;;7.80;5.28;;;;;;;;;;5008511;28;20068;-80
2022/05/11 12:47:25;;;;;;;9.07;4.90;;;;;;;;;;5026478;28;20856;-78
2022/05/11 12:49:52;;;;;;;11.77;5.15;;;;;;;;;;5009783;28;20514;-78
2022/05/11 12:52:20;;;;;;;8.77;4.70;;;;;;;;;;5010022;28;20418;-79
2022/05/11 12:54:58;;;;;;;7.90;5.10;;;;;;;;;;5027890;28;20073;-79
2022/05/11 12:57:33;;;;;;;8.95;5.38;;;;;;;;;;5007279;28;20153;-79
2022/05/11 13:00:01;;;;;;;12.80;5.78;;;;;;;;;;5007066;28;20567;-79
2022/05/11 13:02:37;;;;;;;8.63;5.50;;;;;;;;;;5025281;28;20136;-78
2022/05/11 13:05:09;;;;;;;11.45;6.60;;;;;;;;;;5027589;28;20060;-79
2022/05/11 13:07:42;;;;;;;9.07;5.80;;;;;;;;;;5009615;28;20405;-79
2022/05/11 13:10:13;;;;;;;12.95;5.82;;;;;;;;;;5010075;28;20361;-78
2022/05/11 13:12:41;;;;;;;13.93;6.35;;;;;;;;;;5010420;28;20103;-78
2022/05/11 13:15:08;;;;;;;9.35;6.13;;;;;;;;;;5009288;28;20048;-78
2022/05/11 13:17:40;;;;;;;9.57;5.82;;;;;;;;;;5010557;28;20081;-78
2022/05/11 13:20:13;;;;;;;14.48;5.47;;;;;;;;;;5028195;28;20175;-78
2022/05/11 13:22:40;;;;;;;11.88;6.32;;;;;;;;;;5027432;28;20095;-79
2022/05/11 13:25:09;;;;;;;9.45;5.90;;;;;;;;;;5026784;28;20084;-80
2022/05/11 13:27:39;;;;;;;14.77;6.70;;;;;;;;;;5009672;28;20190;-79
2022/05/11 13:30:12;;;;;;;14.93;6.95;;;;;;;;;;5027491;28;20057;-79
2022/05/11 13:32:46;;;;;;;11.45;7.20;;;;;;;;;;5010485;28;20072;-77
2022/05/11 13:35:15;;;;;;;15.23;6.63;;;;;;;;;;5027783;28;20744;-78
2022/05/11 13:37:53;;;;;;;17.05;7.43;;;;;;;;;;5027693;28;20494;-78
2022/05/11 13:40:34;;;;;;;8.63;6.30;;;;;;;;;;5009745;28;20053;-78
2022/05/11 13:43:02;;;;;;;13.82;6.35;;;;;;;;;;5010271;28;20084;-78
2022/05/11 13:45:30;;;;;;;9.25;6.05;;;;;;;;;;5027944;28;20061;-78
2022/05/11 13:48:12;;;;;;;11.48;7.50;;;;;;;;;;5010030;28;20174;-78
2022/05/11 13:50:41;;;;;;;14.93;6.95;;;;;;;;;;5009649;28;20128;-78
2022/05/11 13:53:12;;;;;;;14.27;6.70;;;;;;;;;;5010067;28;20084;-78
2022/05/11 13:55:41;;;;;;;12.20;6.90;;;;;;;;;;5009398;28;20115;-78
2022/05/11 13:58:21;;;;;;;11.02;7.15;;;;;;;;;;5010177;28;20104;-78
2022/05/11 14:00:49;;;;;;;27.20;7.90;;;;;;;;;;5027095;28;20482;-78
2022/05/11 14:03:18;;;;;;;14.00;6.30;;;;;;;;;;5026862;28;20124;-78
2022/05/11 14:05:46;;;;;;;11.82;7.25;;;;;;;;;;5026986;28;20077;-78
2022/05/11 14:08:13;;;;;;;13.75;7.38;;;;;;;;;;5009611;28;20186;-78
2022/05/11 14:14:03;;;;;;;9.60;6.05;;;;;;;;;;5040663;22;20040;-84
2022/05/11 14:16:32;;;;;;;10.85;6.00;;;;;;;;;;5013177;28;20045;-84
2022/05/11 14:18:59;;;;;;;9.10;6.32;;;;;;;;;;5009641;28;20148;-83
2022/05/11 14:24:49;;;;;;;12.57;6.43;;;;;;;;;;5028579;28;20875;-83
2022/05/11 14:27:17;;;;;;;8.77;6.60;;;;;;;;;;5029922;28;20081;-83
2022/05/11 14:29:47;;;;;;;9.68;7.10;;;;;;;;;;5012622;28;20108;-83
2022/05/11 14:32:32;;;;;;;10.30;6.18;;;;;;;;;;5012328;28;20111;-84
2022/05/11 14:35:04;;;;;;;14.70;6.30;;;;;;;;;;5030116;28;20049;-84
2022/05/11 14:37:31;;;;;;;13.27;5.80;;;;;;;;;;5029966;28;20853;-84
2022/05/11 14:40:01;;;;;;;9.70;5.85;;;;;;;;;;5030191;28;20163;-84
2022/05/11 14:42:30;;;;;;;10.82;5.85;;;;;;;;;;5010601;28;20053;-84
2022/05/11 14:44:58;;;;;;;13.23;6.03;;;;;;;;;;5010306;28;20149;-85
2022/05/11 14:47:38;;;;;;;11.20;6.07;;;;;;;;;;4995758;28;20448;-84
2022/05/11 14:50:08;;;;;;;9.18;5.63;;;;;;;;;;5030139;28;20132;-85
2022/05/11 14:52:36;;;;;;;13.25;5.40;;;;;;;;;;5030905;28;20045;-85
2022/05/11 14:55:05;;;;;;;11.15;5.95;;;;;;;;;;5012169;28;20107;-85
2022/05/11 15:03:05;;;;;;;9.40;4.85;;;;;;;;;;5033037;28;20061;-86
2022/05/11 15:05:32;;;;;;;7.20;5.68;;;;;;;;;;5030116;28;20498;-86
2022/05/11 15:07:59;;;;;;;10.15;5.95;;;;;;;;;;5030087;28;20053;-86
2022/05/11 15:10:27;;;;;;;8.82;5.63;;;;;;;;;;5030217;28;20069;-86
2022/05/11 15:15:40;;;;;;;7.55;4.53;;;;;;;;;;5028516;28;20129;-84
2022/05/11 15:18:11;;;;;;;10.98;4.75;;;;;;;;;;5028478;28;20083;-84
2022/05/11 15:20:39;;;;;;;6.80;4.60;;;;;;;;;;5034199;28;20511;-84
2022/05/11 15:23:07;;;;;;;13.18;3.88;;;;;;;;;;5012398;28;20099;-84
2022/05/11 15:25:34;;;;;;;9.25;4.80;;;;;;;;;;5011058;28;20073;-85
2022/05/11 15:28:02;;;;;;;14.57;4.90;;;;;;;;;;5025405;28;20148;-85
2022/05/11 15:30:31;;;;;;;8.18;5.18;;;;;;;;;;5023221;28;20045;-84
2022/05/11 15:32:59;;;;;;;5.82;4.40;;;;;;;;;;5021999;28;20123;-84
2022/05/11 15:35:28;;;;;;;7.90;4.68;;;;;;;;;;5004940;28;20077;-84
2022/05/11 15:37:55;;;;;;;7.05;4.40;;;;;;;;;;5025296;28;20148;-84
2022/05/11 15:40:26;;;;;;;11.27;4.55;;;;;;;;;;5026159;28;20136;-84
2022/05/11 15:43:03;;;;;;;8.48;4.32;;;;;;;;;;5012498;28;20139;-84
2022/05/11 15:45:51;;;;;;;6.80;4.70;;;;;;;;;;5016994;28;20506;-84
2022/05/11 15:48:18;;;;;;;7.35;4.07;;;;;;;;;;5021751;28;20049;-84
2022/05/11 15:50:46;;;;;;;15.95;5.55;;;;;;;;;;5040075;28;20076;-84
2022/05/11 15:53:17;;;;;;;11.95;5.10;;;;;;;;;;5034220;28;20063;-84
2022/05/11 15:55:45;;;;;;;7.65;4.65;;;;;;;;;;5024940;28;20073;-83